Time;durP1;ratioP1;P1;durP2;ratioP2;P2;SDS_P1;SDS_P2;PMS_P1;PMS_P2;Temp;Humidity;BMP_temperature;BMP_pressure;BME280_temperature;BME280_humidity;BME280_pressure;Samples;Min_cycle;Max_cycle;Signal;HPM_P1;HPM_P2
2023/03/19 00:02:50;;;;;;;25.63;14.90;;;;;;;;;;6261081;28;20211;-52
2023/03/19 00:05:54;;;;;;;22.50;13.17;;;;;;;;;;6247908;28;20194;-55
2023/03/19 00:08:55;;;;;;;20.37;12.80;;;;;;;;;;6237378;28;20198;-55
2023/03/19 00:11:56;;;;;;;20.33;11.70;;;;;;;;;;6231499;28;20261;-55
2023/03/19 00:14:57;;;;;;;15.57;11.07;;;;;;;;;;6256658;28;20198;-54
2023/03/19 00:17:58;;;;;;;15.17;10.70;;;;;;;;;;6240729;28;20194;-55
2023/03/19 00:21:00;;;;;;;16.57;10.53;;;;;;;;;;6227539;28;20224;-52
2023/03/19 00:24:01;;;;;;;14.00;10.57;;;;;;;;;;6249669;28;20199;-52
2023/03/19 00:27:02;;;;;;;20.47;11.63;;;;;;;;;;6250867;28;20198;-55
2023/03/19 00:30:04;;;;;;;16.57;11.50;;;;;;;;;;6265312;28;20237;-51
2023/03/19 00:33:05;;;;;;;14.20;10.73;;;;;;;;;;6231700;28;20187;-53
2023/03/19 00:36:07;;;;;;;14.70;10.57;;;;;;;;;;6249802;28;20198;-54
2023/03/19 00:39:08;;;;;;;15.77;10.73;;;;;;;;;;6245072;28;20214;-55
2023/03/19 00:42:09;;;;;;;13.53;10.40;;;;;;;;;;6221514;28;20214;-52
2023/03/19 00:45:11;;;;;;;16.10;10.67;;;;;;;;;;6232575;28;20247;-55
2023/03/19 00:48:13;;;;;;;12.73;9.43;;;;;;;;;;6234681;28;20198;-55
2023/03/19 00:51:14;;;;;;;16.80;10.20;;;;;;;;;;6253775;28;20205;-54
2023/03/19 00:54:15;;;;;;;14.50;10.37;;;;;;;;;;6248845;28;20232;-55
2023/03/19 00:57:16;;;;;;;13.93;9.47;;;;;;;;;;6239883;28;20191;-54
2023/03/19 01:00:18;;;;;;;14.03;10.10;;;;;;;;;;6225741;28;20197;-54
2023/03/19 01:03:20;;;;;;;14.63;10.70;;;;;;;;;;6238573;28;20223;-55
2023/03/19 01:06:21;;;;;;;12.87;10.07;;;;;;;;;;6262009;28;20214;-53
2023/03/19 01:09:22;;;;;;;12.20;9.70;;;;;;;;;;6255211;28;20217;-55
2023/03/19 01:12:23;;;;;;;14.27;10.20;;;;;;;;;;6265162;28;20194;-54
2023/03/19 01:15:24;;;;;;;14.47;9.90;;;;;;;;;;6230119;28;20275;-55
2023/03/19 01:18:25;;;;;;;13.27;9.80;;;;;;;;;;6246120;28;20193;-53
2023/03/19 01:21:29;;;;;;;13.27;9.37;;;;;;;;;;6226656;28;20217;-55
2023/03/19 01:24:31;;;;;;;16.07;10.40;;;;;;;;;;6224512;28;20191;-55
2023/03/19 01:27:32;;;;;;;13.47;9.73;;;;;;;;;;6223239;28;20281;-55
2023/03/19 01:30:33;;;;;;;13.47;9.63;;;;;;;;;;6239077;28;20313;-55
2023/03/19 01:33:34;;;;;;;13.93;10.27;;;;;;;;;;6263799;28;20183;-55
2023/03/19 01:36:35;;;;;;;13.67;10.07;;;;;;;;;;6265149;28;20194;-53
2023/03/19 01:39:36;;;;;;;13.63;9.77;;;;;;;;;;6238377;28;20193;-52
2023/03/19 01:42:57;;;;;;;12.53;10.03;;;;;;;;;;6229021;28;20268;-55
2023/03/19 01:46:05;;;;;;;15.43;9.90;;;;;;;;;;6251936;28;20245;-55
2023/03/19 01:49:08;;;;;;;13.33;9.60;;;;;;;;;;6249821;28;20184;-56
2023/03/19 01:52:09;;;;;;;14.73;10.80;;;;;;;;;;6248447;28;20198;-55
2023/03/19 01:55:10;;;;;;;11.63;9.67;;;;;;;;;;6254790;28;20198;-53
2023/03/19 01:58:11;;;;;;;14.67;9.80;;;;;;;;;;6261002;28;20186;-53
2023/03/19 02:01:14;;;;;;;16.40;11.67;;;;;;;;;;6252227;28;20240;-55
2023/03/19 02:04:15;;;;;;;14.87;10.10;;;;;;;;;;6243890;28;20203;-55
2023/03/19 02:07:16;;;;;;;13.80;10.20;;;;;;;;;;6238453;28;20195;-55
2023/03/19 02:10:17;;;;;;;13.13;10.07;;;;;;;;;;6231499;28;20191;-55
2023/03/19 02:13:18;;;;;;;13.13;10.70;;;;;;;;;;6240389;28;20294;-53
2023/03/19 02:16:20;;;;;;;12.93;10.33;;;;;;;;;;6225989;28;20186;-54
2023/03/19 02:19:47;;;;;;;15.00;10.37;;;;;;;;;;6234208;28;20650;-55
2023/03/19 02:22:52;;;;;;;15.17;9.50;;;;;;;;;;6236049;28;20306;-52
2023/03/19 02:25:56;;;;;;;14.10;10.13;;;;;;;;;;6245532;28;20187;-55
2023/03/19 02:28:57;;;;;;;14.77;10.63;;;;;;;;;;6274620;28;20190;-56
2023/03/19 02:31:58;;;;;;;13.80;10.27;;;;;;;;;;6245481;28;20230;-54
2023/03/19 02:34:59;;;;;;;13.07;9.43;;;;;;;;;;6231815;28;20238;-55
2023/03/19 02:38:01;;;;;;;14.33;9.83;;;;;;;;;;6252615;28;20199;-54
2023/03/19 02:41:03;;;;;;;14.57;10.03;;;;;;;;;;6260429;28;20221;-55
2023/03/19 02:44:06;;;;;;;11.93;9.63;;;;;;;;;;6240400;28;20214;-55
2023/03/19 02:47:07;;;;;;;13.27;10.33;;;;;;;;;;6246854;28;20270;-56
2023/03/19 02:50:09;;;;;;;14.80;10.00;;;;;;;;;;6236663;28;20187;-55
2023/03/19 02:53:10;;;;;;;13.80;9.63;;;;;;;;;;6278448;28;20220;-55
2023/03/19 02:56:11;;;;;;;12.33;10.20;;;;;;;;;;6266863;28;20198;-55
2023/03/19 02:59:12;;;;;;;13.37;9.60;;;;;;;;;;6259895;28;20241;-53
2023/03/19 03:02:14;;;;;;;13.90;10.00;;;;;;;;;;6231791;28;20241;-54
2023/03/19 03:05:15;;;;;;;12.80;10.17;;;;;;;;;;6226211;28;20191;-55
2023/03/19 03:08:17;;;;;;;14.00;9.97;;;;;;;;;;6250654;28;20222;-55
2023/03/19 03:11:18;;;;;;;16.43;10.20;;;;;;;;;;6257705;28;20218;-56
2023/03/19 03:14:19;;;;;;;13.60;9.57;;;;;;;;;;6255639;28;20258;-55
2023/03/19 03:17:21;;;;;;;14.53;10.23;;;;;;;;;;6252082;28;20193;-52
2023/03/19 03:20:22;;;;;;;12.40;10.40;;;;;;;;;;6230977;28;20187;-55
2023/03/19 03:23:23;;;;;;;15.13;9.60;;;;;;;;;;6261135;28;20233;-56
2023/03/19 03:26:24;;;;;;;17.17;10.50;;;;;;;;;;6255301;28;20218;-55
2023/03/19 03:29:25;;;;;;;13.63;9.83;;;;;;;;;;6236639;28;20222;-52
2023/03/19 03:32:26;;;;;;;17.10;9.57;;;;;;;;;;6260765;28;20213;-56
2023/03/19 03:35:28;;;;;;;12.10;10.43;;;;;;;;;;6231015;28;20194;-55
2023/03/19 03:38:29;;;;;;;12.50;10.40;;;;;;;;;;6256713;28;20229;-55
2023/03/19 03:41:30;;;;;;;14.03;9.87;;;;;;;;;;6235883;28;20321;-54
2023/03/19 03:44:31;;;;;;;11.43;9.40;;;;;;;;;;6251002;28;20280;-52
2023/03/19 03:47:32;;;;;;;14.47;10.63;;;;;;;;;;6252115;28;20193;-55
2023/03/19 03:50:33;;;;;;;17.70;10.53;;;;;;;;;;6257147;28;20248;-55
2023/03/19 03:53:34;;;;;;;16.93;9.47;;;;;;;;;;6228615;28;20190;-55
2023/03/19 03:56:36;;;;;;;15.40;10.47;;;;;;;;;;6253212;28;20197;-54
2023/03/19 03:59:37;;;;;;;14.13;9.43;;;;;;;;;;6231619;28;20194;-55
2023/03/19 04:02:38;;;;;;;14.03;9.73;;;;;;;;;;6233277;28;20225;-54
2023/03/19 04:05:39;;;;;;;12.37;9.73;;;;;;;;;;6242737;28;20194;-54
2023/03/19 04:08:51;;;;;;;14.00;10.20;;;;;;;;;;6249280;28;20225;-54
2023/03/19 04:11:52;;;;;;;14.57;10.47;;;;;;;;;;6250190;28;20199;-52
2023/03/19 04:14:53;;;;;;;14.00;10.30;;;;;;;;;;6256161;28;20199;-55
2023/03/19 04:17:54;;;;;;;13.30;10.50;;;;;;;;;;6260496;28;20268;-54
2023/03/19 04:20:56;;;;;;;14.50;10.77;;;;;;;;;;6266460;28;20218;-54
2023/03/19 04:23:57;;;;;;;13.47;10.30;;;;;;;;;;6249533;28;20201;-55
2023/03/19 04:26:58;;;;;;;12.13;9.63;;;;;;;;;;6231074;28;20194;-54
2023/03/19 04:29:59;;;;;;;16.97;9.97;;;;;;;;;;6228901;28;20283;-55
2023/03/19 04:33:00;;;;;;;20.87;10.83;;;;;;;;;;6223887;28;20239;-55
2023/03/19 04:36:02;;;;;;;16.57;10.27;;;;;;;;;;6265000;28;20204;-57
2023/03/19 04:39:03;;;;;;;13.47;10.07;;;;;;;;;;6240001;28;20201;-56
2023/03/19 04:42:04;;;;;;;16.47;10.17;;;;;;;;;;6249484;28;20224;-57
2023/03/19 04:45:06;;;;;;;16.60;10.33;;;;;;;;;;6259758;28;20191;-56
2023/03/19 04:48:07;;;;;;;10.97;9.03;;;;;;;;;;6256314;28;20181;-56
2023/03/19 04:51:08;;;;;;;14.90;10.27;;;;;;;;;;6256120;28;20204;-53
2023/03/19 04:54:09;;;;;;;18.60;9.73;;;;;;;;;;6255395;28;20204;-58
2023/03/19 04:57:11;;;;;;;14.10;9.83;;;;;;;;;;6232680;28;20221;-58
2023/03/19 05:00:13;;;;;;;12.10;10.17;;;;;;;;;;6262474;28;20198;-58
2023/03/19 05:03:15;;;;;;;15.43;10.10;;;;;;;;;;6233671;28;20215;-57
2023/03/19 05:06:16;;;;;;;15.00;10.53;;;;;;;;;;6258695;28;20647;-57
2023/03/19 05:09:17;;;;;;;13.57;9.50;;;;;;;;;;6239099;28;20194;-56
2023/03/19 05:12:18;;;;;;;16.17;9.93;;;;;;;;;;6260322;28;20190;-55
2023/03/19 05:15:19;;;;;;;13.57;10.03;;;;;;;;;;6225571;28;20300;-58
2023/03/19 05:18:21;;;;;;;13.07;10.17;;;;;;;;;;6255754;28;20197;-58
2023/03/19 05:21:22;;;;;;;16.43;9.83;;;;;;;;;;6248307;28;20214;-56
2023/03/19 05:24:23;;;;;;;12.70;9.83;;;;;;;;;;6229046;28;20186;-55
2023/03/19 05:27:24;;;;;;;14.23;9.73;;;;;;;;;;6253785;28;20201;-52
2023/03/19 05:30:26;;;;;;;13.60;9.97;;;;;;;;;;6236353;28;20296;-53
2023/03/19 05:33:27;;;;;;;14.03;10.17;;;;;;;;;;6249953;28;20202;-52
2023/03/19 05:36:28;;;;;;;13.33;10.10;;;;;;;;;;6254349;28;20212;-55
2023/03/19 05:39:29;;;;;;;16.93;9.77;;;;;;;;;;6247630;28;20194;-57
2023/03/19 05:42:31;;;;;;;14.00;10.17;;;;;;;;;;6232208;28;20202;-55
2023/03/19 05:45:32;;;;;;;14.53;9.67;;;;;;;;;;6261776;28;20191;-53
2023/03/19 05:48:33;;;;;;;13.40;10.60;;;;;;;;;;6254995;28;20248;-55
2023/03/19 05:51:34;;;;;;;13.93;10.30;;;;;;;;;;6257395;28;20277;-51
2023/03/19 05:54:35;;;;;;;16.53;10.30;;;;;;;;;;6243669;28;20190;-54
2023/03/19 05:57:36;;;;;;;13.93;10.10;;;;;;;;;;6244640;28;20198;-55
2023/03/19 06:00:38;;;;;;;13.70;10.20;;;;;;;;;;6231362;28;20195;-51
2023/03/19 06:03:39;;;;;;;13.50;9.57;;;;;;;;;;6245700;28;20214;-55
2023/03/19 06:06:41;;;;;;;14.37;10.80;;;;;;;;;;6227780;28;20206;-56
2023/03/19 06:09:42;;;;;;;12.57;10.77;;;;;;;;;;6225125;28;20245;-56
2023/03/19 06:12:43;;;;;;;13.30;10.30;;;;;;;;;;6229277;28;20195;-57
2023/03/19 06:15:44;;;;;;;13.23;10.53;;;;;;;;;;6233417;28;20277;-57
2023/03/19 06:18:46;;;;;;;14.03;10.30;;;;;;;;;;6224046;28;20198;-57
2023/03/19 06:21:47;;;;;;;15.10;10.30;;;;;;;;;;6239826;28;20296;-55
2023/03/19 06:24:48;;;;;;;12.80;9.80;;;;;;;;;;6257198;28;20194;-57
2023/03/19 06:27:49;;;;;;;13.87;10.53;;;;;;;;;;6260061;28;20245;-50
2023/03/19 06:30:50;;;;;;;13.93;10.40;;;;;;;;;;6222701;28;20234;-54
2023/03/19 06:33:53;;;;;;;11.63;9.80;;;;;;;;;;6237539;28;20265;-56
2023/03/19 06:36:54;;;;;;;14.13;9.40;;;;;;;;;;6258795;28;20225;-52
2023/03/19 06:39:56;;;;;;;15.13;9.70;;;;;;;;;;6261116;28;20211;-53
2023/03/19 06:42:57;;;;;;;12.03;9.53;;;;;;;;;;6256552;28;20222;-54
2023/03/19 06:45:58;;;;;;;12.93;10.03;;;;;;;;;;6254304;28;20214;-57
2023/03/19 06:48:59;;;;;;;14.37;11.13;;;;;;;;;;6252787;28;20236;-55
2023/03/19 06:52:00;;;;;;;14.23;11.40;;;;;;;;;;6249788;28;20205;-55
2023/03/19 06:55:01;;;;;;;16.07;10.17;;;;;;;;;;6233972;28;20193;-56
2023/03/19 06:58:02;;;;;;;12.87;10.00;;;;;;;;;;6238385;28;20229;-57
2023/03/19 07:01:03;;;;;;;15.23;10.07;;;;;;;;;;6249535;28;20210;-56
2023/03/19 07:04:05;;;;;;;12.80;9.43;;;;;;;;;;6246196;28;20220;-61
2023/03/19 07:07:06;;;;;;;15.07;10.83;;;;;;;;;;6249487;28;20186;-59
2023/03/19 07:10:07;;;;;;;17.37;11.77;;;;;;;;;;6255960;28;20198;-56
2023/03/19 07:13:08;;;;;;;15.43;11.27;;;;;;;;;;6257045;28;20195;-57
2023/03/19 07:16:09;;;;;;;14.23;10.60;;;;;;;;;;6230809;28;20201;-59
2023/03/19 07:19:10;;;;;;;12.73;10.67;;;;;;;;;;6259517;28;20194;-55
2023/03/19 07:22:11;;;;;;;13.50;11.00;;;;;;;;;;6260476;28;20210;-57
2023/03/19 07:25:12;;;;;;;15.27;11.20;;;;;;;;;;6230597;28;20182;-52
2023/03/19 07:28:14;;;;;;;14.20;10.27;;;;;;;;;;6232035;28;20256;-53
2023/03/19 07:31:15;;;;;;;12.80;10.27;;;;;;;;;;6247772;28;20234;-53
2023/03/19 07:34:16;;;;;;;12.83;10.13;;;;;;;;;;6263478;28;20259;-57
2023/03/19 07:37:18;;;;;;;14.40;12.20;;;;;;;;;;6265130;28;20186;-60
2023/03/19 07:40:19;;;;;;;13.00;10.63;;;;;;;;;;6236843;28;20222;-55
2023/03/19 07:43:20;;;;;;;14.67;10.47;;;;;;;;;;6241839;28;20222;-52
2023/03/19 07:46:21;;;;;;;13.63;10.93;;;;;;;;;;6238031;28;20194;-54
2023/03/19 07:49:23;;;;;;;14.90;10.90;;;;;;;;;;6220563;28;20253;-51
2023/03/19 07:52:24;;;;;;;13.33;10.60;;;;;;;;;;6240453;28;20195;-51
2023/03/19 07:55:26;;;;;;;15.37;10.90;;;;;;;;;;6263918;28;20202;-50
2023/03/19 07:58:27;;;;;;;15.10;10.37;;;;;;;;;;6229119;28;20198;-52
2023/03/19 08:01:28;;;;;;;14.23;10.57;;;;;;;;;;6253160;28;20219;-52
2023/03/19 08:04:30;;;;;;;12.87;9.83;;;;;;;;;;6258011;28;20217;-54
2023/03/19 08:07:31;;;;;;;13.77;10.83;;;;;;;;;;6224782;28;20187;-48
2023/03/19 08:10:32;;;;;;;11.47;9.77;;;;;;;;;;6267959;28;20199;-52
2023/03/19 08:13:33;;;;;;;12.90;9.27;;;;;;;;;;6240226;28;20273;-52
2023/03/19 08:16:35;;;;;;;13.20;10.03;;;;;;;;;;6264189;28;20227;-51
2023/03/19 08:19:36;;;;;;;12.63;10.57;;;;;;;;;;6255001;28;20289;-54
2023/03/19 08:22:37;;;;;;;15.40;11.43;;;;;;;;;;6230862;28;20225;-54
2023/03/19 08:25:38;;;;;;;12.90;9.47;;;;;;;;;;6240819;28;20244;-51
2023/03/19 08:28:39;;;;;;;11.60;9.67;;;;;;;;;;6222362;28;20200;-50
2023/03/19 08:31:40;;;;;;;10.67;8.77;;;;;;;;;;6247212;28;20241;-50
2023/03/19 08:34:41;;;;;;;11.23;9.13;;;;;;;;;;6241195;28;20213;-51
2023/03/19 08:37:42;;;;;;;14.67;10.23;;;;;;;;;;6224321;28;20202;-53
2023/03/19 08:40:43;;;;;;;12.23;10.23;;;;;;;;;;6244622;28;20190;-52
2023/03/19 08:43:44;;;;;;;15.07;9.73;;;;;;;;;;6224193;28;20329;-49
2023/03/19 08:46:46;;;;;;;12.00;10.23;;;;;;;;;;6242429;28;20194;-50
2023/03/19 08:49:47;;;;;;;15.90;10.63;;;;;;;;;;6225693;28;20190;-50
2023/03/19 08:52:48;;;;;;;14.23;11.60;;;;;;;;;;6259766;28;20269;-50
2023/03/19 08:55:56;;;;;;;16.37;11.47;;;;;;;;;;6256448;28;20219;-54
2023/03/19 08:58:58;;;;;;;14.03;10.27;;;;;;;;;;6248557;28;20190;-51
2023/03/19 09:01:59;;;;;;;16.30;11.63;;;;;;;;;;6214386;28;20218;-52
2023/03/19 09:05:00;;;;;;;16.23;11.27;;;;;;;;;;6221054;28;20199;-50
2023/03/19 09:08:01;;;;;;;15.30;11.87;;;;;;;;;;6246463;28;20181;-52
2023/03/19 09:11:03;;;;;;;16.13;10.80;;;;;;;;;;6273711;28;20248;-55
2023/03/19 09:14:04;;;;;;;14.07;10.80;;;;;;;;;;6235605;28;20190;-53
2023/03/19 09:17:06;;;;;;;18.57;12.27;;;;;;;;;;6231528;28;20186;-52
2023/03/19 09:20:07;;;;;;;16.23;11.63;;;;;;;;;;6263987;28;20190;-55
2023/03/19 09:23:09;;;;;;;13.70;10.50;;;;;;;;;;6260550;28;20237;-51
2023/03/19 09:26:10;;;;;;;12.73;9.83;;;;;;;;;;6243693;28;20210;-50
2023/03/19 09:29:11;;;;;;;14.47;11.40;;;;;;;;;;6249208;28;20191;-54
2023/03/19 09:32:12;;;;;;;18.30;13.03;;;;;;;;;;6238437;28;20233;-47
2023/03/19 09:35:13;;;;;;;14.53;12.80;;;;;;;;;;6229553;28;20258;-50
2023/03/19 09:38:15;;;;;;;15.13;11.53;;;;;;;;;;6223819;28;20217;-50
2023/03/19 09:41:25;;;;;;;16.20;12.97;;;;;;;;;;6236599;28;20215;-55
2023/03/19 09:44:28;;;;;;;16.20;13.23;;;;;;;;;;6252274;28;20219;-48
2023/03/19 09:47:31;;;;;;;15.17;12.80;;;;;;;;;;6235133;28;20194;-57
2023/03/19 09:50:36;;;;;;;16.63;13.07;;;;;;;;;;6234429;28;20190;-53
2023/03/19 09:53:43;;;;;;;17.90;12.07;;;;;;;;;;6247635;28;20183;-50
2023/03/19 09:56:44;;;;;;;14.70;11.43;;;;;;;;;;6235769;28;20206;-50
2023/03/19 09:59:46;;;;;;;17.90;12.37;;;;;;;;;;6258807;28;20281;-50
2023/03/19 10:02:49;;;;;;;17.00;12.53;;;;;;;;;;6240794;28;20234;-52
2023/03/19 10:06:09;;;;;;;18.73;13.30;;;;;;;;;;6255776;28;20187;-52
2023/03/19 10:09:16;;;;;;;15.70;13.07;;;;;;;;;;6247887;28;20211;-48
2023/03/19 10:12:30;;;;;;;14.70;13.13;;;;;;;;;;6258801;28;20195;-51
2023/03/19 10:15:32;;;;;;;17.13;12.57;;;;;;;;;;6240416;28;20187;-51
2023/03/19 10:18:38;;;;;;;15.40;12.37;;;;;;;;;;6250375;28;20281;-47
2023/03/19 10:21:45;;;;;;;16.40;12.93;;;;;;;;;;6231872;28;20305;-48
2023/03/19 10:24:48;;;;;;;16.43;12.50;;;;;;;;;;6235930;28;20190;-48
2023/03/19 10:27:53;;;;;;;20.03;12.43;;;;;;;;;;6245024;28;21041;-47
2023/03/19 10:30:57;;;;;;;14.97;12.47;;;;;;;;;;6244792;28;20235;-52
2023/03/19 10:34:04;;;;;;;19.77;12.83;;;;;;;;;;6245966;28;20228;-49
2023/03/19 10:37:13;;;;;;;16.87;12.27;;;;;;;;;;6254031;28;20215;-48
2023/03/19 10:40:22;;;;;;;17.47;12.57;;;;;;;;;;6230862;28;20189;-52
2023/03/19 10:43:25;;;;;;;17.63;12.63;;;;;;;;;;6238432;28;20281;-47
2023/03/19 10:46:26;;;;;;;14.93;12.87;;;;;;;;;;6240901;28;20207;-50
2023/03/19 10:49:27;;;;;;;16.43;12.33;;;;;;;;;;6221874;28;20183;-50
2023/03/19 10:52:30;;;;;;;16.80;12.53;;;;;;;;;;6228402;28;20190;-52
2023/03/19 10:55:31;;;;;;;19.13;12.90;;;;;;;;;;6248884;28;20272;-47
2023/03/19 10:58:34;;;;;;;14.73;13.03;;;;;;;;;;6245044;28;20198;-51
2023/03/19 11:01:38;;;;;;;16.97;13.30;;;;;;;;;;6251986;28;20214;-48
2023/03/19 11:04:39;;;;;;;16.53;13.03;;;;;;;;;;6238105;28;20198;-48
2023/03/19 11:07:40;;;;;;;17.53;12.43;;;;;;;;;;6253451;28;20182;-47
2023/03/19 11:10:45;;;;;;;18.73;13.27;;;;;;;;;;6228406;28;20267;-50
2023/03/19 11:13:46;;;;;;;14.47;12.43;;;;;;;;;;6237720;28;20199;-52
2023/03/19 11:16:48;;;;;;;14.73;12.17;;;;;;;;;;6230611;28;20285;-51
2023/03/19 11:19:51;;;;;;;17.80;12.97;;;;;;;;;;6241900;28;20286;-55
2023/03/19 11:22:53;;;;;;;16.83;13.17;;;;;;;;;;6247602;28;20219;-53
2023/03/19 11:25:58;;;;;;;16.63;13.20;;;;;;;;;;6242876;28;20211;-52
2023/03/19 11:29:01;;;;;;;16.30;13.27;;;;;;;;;;6247746;28;20271;-51
2023/03/19 11:32:15;;;;;;;18.63;13.80;;;;;;;;;;6247260;28;20251;-54
2023/03/19 11:35:25;;;;;;;17.40;12.33;;;;;;;;;;6246540;28;20195;-50
2023/03/19 11:38:33;;;;;;;17.70;13.20;;;;;;;;;;6238926;28;20271;-53
2023/03/19 11:41:53;;;;;;;16.63;13.20;;;;;;;;;;6245818;28;20225;-53
2023/03/19 11:45:06;;;;;;;17.90;13.77;;;;;;;;;;6247883;28;20218;-54
2023/03/19 11:48:13;;;;;;;15.50;12.87;;;;;;;;;;6243953;28;20190;-47
2023/03/19 11:51:24;;;;;;;17.13;13.53;;;;;;;;;;6242218;28;20186;-48
2023/03/19 11:54:28;;;;;;;15.27;12.37;;;;;;;;;;6244958;28;20202;-50
2023/03/19 11:57:47;;;;;;;17.13;13.40;;;;;;;;;;6236944;28;20195;-48
2023/03/19 12:00:51;;;;;;;18.93;13.80;;;;;;;;;;6264681;28;20254;-48
2023/03/19 12:04:01;;;;;;;16.70;12.53;;;;;;;;;;6257620;28;20200;-54
2023/03/19 12:07:09;;;;;;;16.97;13.53;;;;;;;;;;6264936;28;20202;-50
2023/03/19 12:10:30;;;;;;;15.83;12.43;;;;;;;;;;6246078;28;20187;-49
2023/03/19 12:13:34;;;;;;;17.27;12.60;;;;;;;;;;6237041;28;20197;-49
2023/03/19 12:16:54;;;;;;;17.60;13.63;;;;;;;;;;6242767;28;20184;-49
2023/03/19 12:20:04;;;;;;;15.40;11.63;;;;;;;;;;6230428;28;20223;-48
2023/03/19 12:23:19;;;;;;;17.87;12.50;;;;;;;;;;6238918;28;20283;-48
2023/03/19 12:26:33;;;;;;;14.80;12.90;;;;;;;;;;6246149;28;20185;-51
2023/03/19 12:29:52;;;;;;;15.00;12.60;;;;;;;;;;6252057;28;20234;-49
2023/03/19 12:33:00;;;;;;;18.93;13.43;;;;;;;;;;6242262;28;20215;-48
2023/03/19 12:36:02;;;;;;;17.23;11.73;;;;;;;;;;6246763;28;20226;-55
2023/03/19 12:39:11;;;;;;;19.03;13.20;;;;;;;;;;6234409;28;20184;-54
2023/03/19 12:42:15;;;;;;;17.23;13.07;;;;;;;;;;6246531;28;20268;-50
2023/03/19 12:45:23;;;;;;;14.33;12.80;;;;;;;;;;6247042;28;20179;-54
2023/03/19 12:48:31;;;;;;;15.07;12.77;;;;;;;;;;6240227;28;20186;-50
2023/03/19 12:51:36;;;;;;;16.63;12.73;;;;;;;;;;6237780;28;20208;-53
2023/03/19 12:54:41;;;;;;;13.43;11.97;;;;;;;;;;6253505;28;20196;-52
2023/03/19 12:57:46;;;;;;;16.63;12.40;;;;;;;;;;6232021;28;20191;-54
2023/03/19 13:01:11;;;;;;;16.87;13.10;;;;;;;;;;6239517;28;20198;-49
2023/03/19 13:04:18;;;;;;;15.87;13.23;;;;;;;;;;6236829;28;20199;-49
2023/03/19 13:07:31;;;;;;;15.83;12.87;;;;;;;;;;6237522;28;20188;-54
2023/03/19 13:10:32;;;;;;;16.27;13.63;;;;;;;;;;6251904;28;20234;-51
2023/03/19 13:13:33;;;;;;;15.83;13.30;;;;;;;;;;6221030;28;20199;-49
2023/03/19 13:16:52;;;;;;;16.03;13.47;;;;;;;;;;6240784;28;20257;-50
2023/03/19 13:19:55;;;;;;;14.67;12.97;;;;;;;;;;6245241;28;20195;-48
2023/03/19 13:22:58;;;;;;;16.80;13.40;;;;;;;;;;6236818;28;20238;-48
2023/03/19 13:26:03;;;;;;;14.13;11.60;;;;;;;;;;6258654;28;20182;-50
2023/03/19 13:29:09;;;;;;;13.53;11.63;;;;;;;;;;6230804;28;20270;-54
2023/03/19 13:32:28;;;;;;;16.80;12.53;;;;;;;;;;6242499;28;20253;-51
2023/03/19 13:35:39;;;;;;;16.13;13.00;;;;;;;;;;6242289;28;20206;-51
2023/03/19 13:38:44;;;;;;;13.77;12.27;;;;;;;;;;6249515;28;20198;-49
2023/03/19 13:41:53;;;;;;;17.63;13.43;;;;;;;;;;6233997;28;20207;-48
2023/03/19 13:45:00;;;;;;;15.30;11.60;;;;;;;;;;6239934;28;20278;-51
2023/03/19 13:48:20;;;;;;;17.20;13.47;;;;;;;;;;6242427;28;20218;-51
2023/03/19 13:51:25;;;;;;;13.97;11.93;;;;;;;;;;6237529;28;20198;-53
2023/03/19 13:54:40;;;;;;;16.07;12.47;;;;;;;;;;6244035;28;20186;-48
2023/03/19 13:57:41;;;;;;;14.53;12.43;;;;;;;;;;6223389;28;20282;-51
2023/03/19 14:00:45;;;;;;;15.73;12.37;;;;;;;;;;6219225;28;20208;-52
2023/03/19 14:04:03;;;;;;;13.97;11.53;;;;;;;;;;6232230;28;20256;-50
2023/03/19 14:07:30;;;;;;;14.97;12.03;;;;;;;;;;6235200;28;20195;-51
2023/03/19 14:10:32;;;;;;;17.37;11.97;;;;;;;;;;6242305;28;20201;-49
2023/03/19 14:13:34;;;;;;;12.57;10.70;;;;;;;;;;6244189;28;20206;-50
2023/03/19 14:16:42;;;;;;;14.90;10.83;;;;;;;;;;6241779;28;20195;-51
2023/03/19 14:19:43;;;;;;;16.10;11.70;;;;;;;;;;6241830;28;20290;-48
2023/03/19 14:22:44;;;;;;;16.33;11.63;;;;;;;;;;6248756;28;20237;-49
2023/03/19 14:25:51;;;;;;;14.33;12.43;;;;;;;;;;6236898;28;20186;-50
2023/03/19 14:29:04;;;;;;;14.13;12.07;;;;;;;;;;6246892;28;20194;-52
2023/03/19 14:32:13;;;;;;;12.40;11.07;;;;;;;;;;6234617;28;20240;-52
2023/03/19 14:35:18;;;;;;;13.50;11.10;;;;;;;;;;6254764;28;20191;-52
2023/03/19 14:38:32;;;;;;;15.37;12.17;;;;;;;;;;6243033;28;20215;-53
2023/03/19 14:41:39;;;;;;;14.73;11.97;;;;;;;;;;6251252;28;20354;-51
2023/03/19 14:44:59;;;;;;;11.50;10.30;;;;;;;;;;6243768;28;20210;-51
2023/03/19 14:48:17;;;;;;;14.20;11.83;;;;;;;;;;6241593;28;20229;-51
2023/03/19 14:51:24;;;;;;;14.80;11.03;;;;;;;;;;6241326;28;20195;-53
2023/03/19 14:54:41;;;;;;;13.50;10.80;;;;;;;;;;6247772;28;20213;-54
2023/03/19 14:57:42;;;;;;;15.60;11.00;;;;;;;;;;6244836;28;20291;-55
2023/03/19 15:00:49;;;;;;;12.23;10.30;;;;;;;;;;6238638;28;20195;-53
2023/03/19 15:03:59;;;;;;;17.70;10.17;;;;;;;;;;6257349;28;20215;-53
2023/03/19 15:07:01;;;;;;;13.23;10.77;;;;;;;;;;6244730;28;20217;-54
2023/03/19 15:10:02;;;;;;;15.17;10.90;;;;;;;;;;6237343;28;20179;-53
2023/03/19 15:13:10;;;;;;;11.67;10.17;;;;;;;;;;6262022;28;20198;-52
2023/03/19 15:16:23;;;;;;;14.47;10.77;;;;;;;;;;6248556;28;20203;-54
2023/03/19 15:19:25;;;;;;;12.60;9.97;;;;;;;;;;6240186;28;20187;-55
2023/03/19 15:22:30;;;;;;;13.87;10.43;;;;;;;;;;6258749;28;20223;-54
2023/03/19 15:25:31;;;;;;;13.77;10.90;;;;;;;;;;6250569;28;20198;-55
2023/03/19 15:28:33;;;;;;;11.30;9.73;;;;;;;;;;6227199;28;20199;-55
2023/03/19 15:31:48;;;;;;;13.30;10.80;;;;;;;;;;6226991;28;20239;-56
2023/03/19 15:34:49;;;;;;;12.93;10.57;;;;;;;;;;6256811;28;20210;-55
2023/03/19 15:37:53;;;;;;;13.30;11.30;;;;;;;;;;6223887;28;20331;-56
2023/03/19 15:40:54;;;;;;;13.20;10.37;;;;;;;;;;6244800;28;20195;-55
2023/03/19 15:43:55;;;;;;;10.63;9.53;;;;;;;;;;6239244;28;20212;-56
2023/03/19 15:46:57;;;;;;;13.07;10.03;;;;;;;;;;6250888;28;20190;-55
2023/03/19 15:50:00;;;;;;;14.13;11.63;;;;;;;;;;6244176;28;20194;-56
2023/03/19 15:53:04;;;;;;;13.73;11.13;;;;;;;;;;6264284;28;20195;-56
2023/03/19 15:56:06;;;;;;;14.47;11.67;;;;;;;;;;6238857;28;20198;-53
2023/03/19 15:59:07;;;;;;;17.17;11.20;;;;;;;;;;6225152;28;20387;-53
2023/03/19 16:02:14;;;;;;;13.83;10.27;;;;;;;;;;6225188;28;20216;-53
2023/03/19 16:05:26;;;;;;;12.07;10.73;;;;;;;;;;6265677;28;20201;-48
2023/03/19 16:08:27;;;;;;;13.27;10.60;;;;;;;;;;6241322;28;20191;-52
2023/03/19 16:11:30;;;;;;;13.40;10.53;;;;;;;;;;6232328;28;20209;-50
2023/03/19 16:14:44;;;;;;;12.43;9.33;;;;;;;;;;6245096;28;20207;-52
2023/03/19 16:17:48;;;;;;;12.23;10.93;;;;;;;;;;6243200;28;20202;-51
2023/03/19 16:21:04;;;;;;;14.63;11.43;;;;;;;;;;6238361;28;20276;-55
2023/03/19 16:24:26;;;;;;;11.00;9.07;;;;;;;;;;6259251;28;20196;-54
2023/03/19 16:27:36;;;;;;;12.77;9.60;;;;;;;;;;6244168;28;20197;-54
2023/03/19 16:30:45;;;;;;;13.60;11.20;;;;;;;;;;6251217;28;20235;-54
2023/03/19 16:33:46;;;;;;;14.13;10.60;;;;;;;;;;6248655;28;20198;-53
2023/03/19 16:36:48;;;;;;;12.37;9.93;;;;;;;;;;6228746;28;20197;-52
2023/03/19 16:39:56;;;;;;;11.23;9.73;;;;;;;;;;6248707;28;20219;-52
2023/03/19 16:43:06;;;;;;;13.47;10.47;;;;;;;;;;6248732;28;20218;-53
2023/03/19 16:46:11;;;;;;;11.87;9.20;;;;;;;;;;6273009;28;20192;-52
2023/03/19 16:49:12;;;;;;;12.33;10.00;;;;;;;;;;6231238;28;20194;-50
2023/03/19 16:52:15;;;;;;;11.13;9.60;;;;;;;;;;6264707;28;20205;-51
2023/03/19 16:55:16;;;;;;;13.47;9.83;;;;;;;;;;6247408;28;20222;-54
2023/03/19 16:58:19;;;;;;;13.33;10.20;;;;;;;;;;6244369;28;20280;-55
2023/03/19 17:01:23;;;;;;;14.23;9.77;;;;;;;;;;6245275;28;20183;-53
2023/03/19 17:04:25;;;;;;;11.63;9.57;;;;;;;;;;6227352;28;20202;-51
2023/03/19 17:07:26;;;;;;;13.77;9.73;;;;;;;;;;6258146;28;20486;-54
2023/03/19 17:10:29;;;;;;;13.13;10.10;;;;;;;;;;6232149;28;20205;-57
2023/03/19 17:13:31;;;;;;;12.53;10.30;;;;;;;;;;6243922;28;20261;-57
2023/03/19 17:16:33;;;;;;;11.23;9.57;;;;;;;;;;6247006;28;20202;-55
2023/03/19 17:19:36;;;;;;;11.97;10.27;;;;;;;;;;6245106;28;20228;-53
2023/03/19 17:22:37;;;;;;;15.03;10.43;;;;;;;;;;6235694;28;20226;-56
2023/03/19 17:25:39;;;;;;;12.03;10.50;;;;;;;;;;6256153;28;20261;-51
2023/03/19 17:28:40;;;;;;;12.40;9.53;;;;;;;;;;6230652;28;20222;-57
2023/03/19 17:31:42;;;;;;;13.63;10.60;;;;;;;;;;6248269;28;20247;-51
2023/03/19 17:34:46;;;;;;;23.80;14.70;;;;;;;;;;6207913;28;20218;-57
2023/03/19 17:37:48;;;;;;;13.37;10.83;;;;;;;;;;6246761;28;20217;-57
2023/03/19 17:40:50;;;;;;;15.50;11.93;;;;;;;;;;6251243;28;20199;-57
2023/03/19 17:43:51;;;;;;;15.33;11.47;;;;;;;;;;6223686;28;20274;-57
2023/03/19 17:46:53;;;;;;;11.87;10.20;;;;;;;;;;6264079;28;20240;-57
2023/03/19 17:49:55;;;;;;;14.83;10.43;;;;;;;;;;6247941;28;20186;-57
2023/03/19 17:52:57;;;;;;;12.57;10.63;;;;;;;;;;6247301;28;20252;-57